createdAt,value
2022-08-02T00:04:03.477Z,21.10
2022-08-02T00:09:10.773Z,20.80
2022-08-02T00:14:18.462Z,20.60
2022-08-02T00:19:28.548Z,20.80
2022-08-02T00:24:36.019Z,20.60
2022-08-02T00:29:52.925Z,20.00
2022-08-02T00:35:00.666Z,18.80
2022-08-02T00:40:10.070Z,17.80
2022-08-02T00:45:17.365Z,19.50
2022-08-02T00:50:25.433Z,18.40
2022-08-02T00:55:33.545Z,15.70
2022-08-02T01:00:40.815Z,16.60
2022-08-02T01:06:02.309Z,18.00
2022-08-02T01:11:15.806Z,19.20
2022-08-02T01:16:28.918Z,21.00
2022-08-02T01:21:56.112Z,21.80
2022-08-02T01:27:13.119Z,19.70
2022-08-02T01:32:31.355Z,17.60
2022-08-02T01:37:44.575Z,18.10
2022-08-02T01:42:58.119Z,16.70
2022-08-02T01:48:08.075Z,19.00
2022-08-02T01:53:17.225Z,15.80
2022-08-02T01:58:28.080Z,20.10
2022-08-02T02:03:41.753Z,17.10
2022-08-02T02:08:51.307Z,16.10
2022-08-02T02:14:02.268Z,19.30
2022-08-02T02:19:10.690Z,18.90
2022-08-02T02:24:17.844Z,16.20
2022-08-02T02:29:29.819Z,16.90
2022-08-02T02:34:39.980Z,17.40
2022-08-02T02:39:50.045Z,17.60
2022-08-02T02:44:59.350Z,13.40
2022-08-02T02:50:07.705Z,19.00
2022-08-02T02:55:15.896Z,15.80
2022-08-02T03:00:44.118Z,18.60
2022-08-02T03:05:51.705Z,19.50
2022-08-02T03:10:59.736Z,16.80
2022-08-02T03:16:07.619Z,18.80
2022-08-02T03:21:15.640Z,21.90
2022-08-02T03:26:22.967Z,20.20
2022-08-02T03:31:32.796Z,15.50
2022-08-02T03:36:42.013Z,17.20
2022-08-02T03:41:51.129Z,15.40
2022-08-02T03:46:59.523Z,15.50
2022-08-02T03:52:07.900Z,22.30
2022-08-02T03:57:15.857Z,18.40
2022-08-02T04:02:22.817Z,20.60
2022-08-02T04:08:34.180Z,18.30
2022-08-02T04:12:58.555Z,20.20
2022-08-02T04:18:06.504Z,21.00
2022-08-02T04:23:15.823Z,19.80
2022-08-02T04:28:27.642Z,19.90
2022-08-02T04:33:37.928Z,19.90
2022-08-02T04:38:45.733Z,22.50
2022-08-02T04:43:53.032Z,22.20
2022-08-02T04:49:00.497Z,21.90
2022-08-02T04:54:10.518Z,13.90
2022-08-02T04:59:18.024Z,15.40
2022-08-02T05:04:25.174Z,23.80
2022-08-02T05:09:31.948Z,17.90
2022-08-02T05:14:39.377Z,21.30
2022-08-02T05:31:51.262Z,17.40
2022-08-02T05:36:59.972Z,21.00
2022-08-02T05:42:09.534Z,20.70
2022-08-02T05:47:17.376Z,20.00
2022-08-02T05:52:33.805Z,17.90
2022-08-02T05:57:49.514Z,18.20
2022-08-02T06:03:18.104Z,21.10
2022-08-02T06:08:31.247Z,17.20
2022-08-02T06:13:39.423Z,19.10
2022-08-02T06:18:48.905Z,19.30
2022-08-02T06:23:59.651Z,17.70
2022-08-02T06:29:07.152Z,16.20
2022-08-02T06:34:14.707Z,20.00
2022-08-02T06:39:28.326Z,18.40
2022-08-02T06:44:49.525Z,16.10
2022-08-02T06:49:58.742Z,15.60
2022-08-02T06:55:08.151Z,18.20
2022-08-02T07:00:16.245Z,16.60
2022-08-02T07:05:25.141Z,13.90
2022-08-02T07:10:32.418Z,16.60
2022-08-02T07:15:40.038Z,17.30
2022-08-02T07:20:57.026Z,14.60
2022-08-02T07:26:05.877Z,12.70
2022-08-02T07:31:13.338Z,17.90
2022-08-02T07:36:22.822Z,14.90
2022-08-02T07:41:30.825Z,13.30
2022-08-02T07:46:38.513Z,15.00
2022-08-02T07:51:46.100Z,11.60
2022-08-02T07:56:57.530Z,15.00
2022-08-02T08:02:06.270Z,18.20
2022-08-02T08:07:14.001Z,13.90
2022-08-02T08:12:21.284Z,17.70
2022-08-02T08:17:29.608Z,14.10
2022-08-02T08:22:37.020Z,14.70
2022-08-02T08:27:52.477Z,15.40
2022-08-02T08:33:00.037Z,17.80
2022-08-02T08:38:08.076Z,9.80
2022-08-02T08:43:16.975Z,17.30
2022-08-02T08:48:30.625Z,15.50
2022-08-02T08:53:44.903Z,14.90
2022-08-02T08:58:52.236Z,10.30
2022-08-02T09:04:00.418Z,14.40
2022-08-02T09:09:07.713Z,14.40
2022-08-02T09:14:27.718Z,15.80
2022-08-02T09:19:35.605Z,14.80
2022-08-02T09:24:48.347Z,12.80
2022-08-02T09:30:12.209Z,11.40
2022-08-02T09:41:20.103Z,12.60
2022-08-02T09:46:25.922Z,13.60
2022-08-02T09:56:46.975Z,9.70
2022-08-02T10:02:01.229Z,12.00
2022-08-02T10:07:07.785Z,14.40
2022-08-02T10:12:12.609Z,16.10
2022-08-02T10:17:17.232Z,15.80
2022-08-02T10:22:22.750Z,14.80
2022-08-02T10:27:48.964Z,18.10
2022-08-02T10:32:57.431Z,16.80
2022-08-02T10:38:04.139Z,16.20
2022-08-02T10:43:08.553Z,16.30
2022-08-02T10:48:14.156Z,15.80
2022-08-02T10:53:25.777Z,15.00
2022-08-02T10:58:32.009Z,18.50
2022-08-02T11:08:46.397Z,16.10
2022-08-02T11:14:06.906Z,16.60
2022-08-02T11:19:12.605Z,17.60
2022-08-02T11:24:28.717Z,17.00
2022-08-02T11:29:38.397Z,19.50
2022-08-02T11:34:45.579Z,18.40
2022-08-02T11:39:52.512Z,21.80
2022-08-02T11:44:56.970Z,22.80
2022-08-02T11:50:11.706Z,22.60
2022-08-02T11:55:16.079Z,22.10
2022-08-02T12:00:19.802Z,22.10
2022-08-02T12:05:39.122Z,22.50
2022-08-02T12:10:50.626Z,23.20
2022-08-02T12:16:14.425Z,22.60
2022-08-02T12:21:26.540Z,23.00
2022-08-02T12:26:30.518Z,19.80
2022-08-02T12:31:56.898Z,15.90
2022-08-02T12:37:03.844Z,16.40
2022-08-02T12:42:10.466Z,16.60
2022-08-02T12:47:14.646Z,16.20
2022-08-02T12:52:23.833Z,17.00
2022-08-02T12:57:27.654Z,15.00
2022-08-02T13:02:31.593Z,19.30
2022-08-02T13:07:35.794Z,16.90
2022-08-02T13:12:40.634Z,17.30
2022-08-02T13:17:45.504Z,19.80
2022-08-02T13:22:52.846Z,16.70
2022-08-02T13:27:57.585Z,15.90
2022-08-02T13:33:01.477Z,11.60
2022-08-02T13:38:06.241Z,13.80
2022-08-02T13:43:09.994Z,14.20
2022-08-02T13:48:19.871Z,12.40
2022-08-02T13:53:23.855Z,10.10
2022-08-02T13:58:27.587Z,10.40
2022-08-02T14:04:07.686Z,11.10
2022-08-02T14:08:54.993Z,11.70
2022-08-02T14:13:58.807Z,9.90
2022-08-02T14:19:02.844Z,10.60
2022-08-02T14:24:07.657Z,11.80
2022-08-02T14:29:11.492Z,9.70
2022-08-02T14:34:15.771Z,10.10
2022-08-02T14:39:19.993Z,12.10
2022-08-02T14:44:23.614Z,13.30
2022-08-02T14:49:27.400Z,13.10
2022-08-02T14:54:32.399Z,14.30
2022-08-02T14:59:36.276Z,12.90
2022-08-02T15:04:47.111Z,13.30
2022-08-02T15:09:51.004Z,14.00
2022-08-02T15:14:54.772Z,14.70
2022-08-02T15:20:03.005Z,12.70
2022-08-02T15:25:22.224Z,13.70
2022-08-02T15:30:26.348Z,13.10
2022-08-02T15:35:30.253Z,11.40
2022-08-02T15:40:34.684Z,15.90
2022-08-02T15:45:40.195Z,14.60
2022-08-02T15:56:04.106Z,15.40
2022-08-02T16:01:09.216Z,16.20
2022-08-02T16:06:13.703Z,14.70
2022-08-02T16:11:17.354Z,14.60
2022-08-02T16:16:22.363Z,14.40
2022-08-02T16:21:26.701Z,9.30
2022-08-02T16:26:31.241Z,13.70
2022-08-02T16:31:38.709Z,13.70
2022-08-02T16:36:47.341Z,13.00
2022-08-02T16:41:52.916Z,12.70
2022-08-02T16:46:57.507Z,12.90
2022-08-02T16:52:06.221Z,13.40
2022-08-02T16:57:15.244Z,11.80
2022-08-02T17:02:19.611Z,15.80
2022-08-02T17:08:08.203Z,15.60
2022-08-02T17:12:51.295Z,15.50
2022-08-02T17:17:55.379Z,13.30
2022-08-02T17:23:00.619Z,14.80
2022-08-02T17:28:05.246Z,14.50
2022-08-02T17:33:13.107Z,15.50
2022-08-02T17:38:26.167Z,15.80
2022-08-02T17:43:30.781Z,16.70
2022-08-02T17:48:54.994Z,17.20
2022-08-02T17:54:00.431Z,15.60
2022-08-02T17:59:20.769Z,15.30
2022-08-02T18:04:27.426Z,16.00
2022-08-02T18:09:32.286Z,16.50
2022-08-02T18:14:38.237Z,15.50
2022-08-02T18:19:54.056Z,16.10
2022-08-02T18:25:01.274Z,15.20
2022-08-02T18:30:17.661Z,16.20
2022-08-02T18:35:31.738Z,16.50
2022-08-02T18:40:38.128Z,16.40
2022-08-02T18:46:05.801Z,21.50
2022-08-02T18:51:09.568Z,22.50
2022-08-02T18:56:19.617Z,23.40
2022-08-02T19:01:33.554Z,20.60
2022-08-02T19:06:38.827Z,18.60
2022-08-02T19:11:47.321Z,21.50
2022-08-02T19:16:52.208Z,20.40
2022-08-02T19:22:15.955Z,20.00
2022-08-02T19:27:25.920Z,23.40
2022-08-02T19:32:40.471Z,19.50
2022-08-02T19:37:55.846Z,22.70
2022-08-02T19:44:23.586Z,19.70
2022-08-02T19:48:26.792Z,19.40
2022-08-02T19:53:46.985Z,23.30
2022-08-02T19:58:53.710Z,21.40
2022-08-02T20:03:57.760Z,23.50
2022-08-02T20:09:02.207Z,22.20
2022-08-02T20:14:07.367Z,21.10
2022-08-02T20:19:11.946Z,22.40
2022-08-02T20:24:19.896Z,21.90
2022-08-02T20:29:43.427Z,22.40
2022-08-02T20:34:49.681Z,23.90
2022-08-02T20:39:53.721Z,21.50
2022-08-02T20:44:57.730Z,20.70
2022-08-02T20:50:19.894Z,24.20
2022-08-02T20:55:35.866Z,24.30
2022-08-02T21:00:40.614Z,23.50
2022-08-02T21:05:54.754Z,22.50
2022-08-02T21:10:59.528Z,22.10
2022-08-02T21:16:05.528Z,24.50
2022-08-02T21:21:14.728Z,23.60
2022-08-02T21:26:28.182Z,23.30
2022-08-02T21:31:35.865Z,24.20
2022-08-02T21:36:40.840Z,23.80
2022-08-02T21:41:46.107Z,25.80
2022-08-02T21:46:53.176Z,24.80
2022-08-02T21:51:58.108Z,24.00
2022-08-02T21:57:01.819Z,23.50
2022-08-02T22:02:12.321Z,24.20
2022-08-02T22:07:23.564Z,22.00
2022-08-02T22:12:29.430Z,25.80
2022-08-02T22:17:53.498Z,25.90
2022-08-02T22:22:57.284Z,24.50
2022-08-02T22:28:35.943Z,25.60
2022-08-02T22:33:47.428Z,23.50
2022-08-02T22:39:19.435Z,24.40
2022-08-02T22:44:23.278Z,25.00
2022-08-02T22:49:38.763Z,24.60
2022-08-02T22:54:50.814Z,21.60
2022-08-02T22:59:54.945Z,23.60
2022-08-02T23:04:58.525Z,23.80
2022-08-02T23:10:04.148Z,20.70
2022-08-02T23:15:10.632Z,20.50
2022-08-02T23:20:14.874Z,22.60
2022-08-02T23:25:18.729Z,21.30
2022-08-02T23:30:22.829Z,24.70
2022-08-02T23:35:26.927Z,25.10
2022-08-02T23:40:39.071Z,25.20
2022-08-02T23:45:45.670Z,24.90
2022-08-02T23:50:49.411Z,23.60
2022-08-02T23:55:53.050Z,23.00
